Time;durP1;ratioP1;P1;durP2;ratioP2;P2;SDS_P1;SDS_P2;PMS_P1;PMS_P2;Temp;Humidity;BMP_temperature;BMP_pressure;BME280_temperature;BME280_humidity;BME280_pressure;Samples;Min_cycle;Max_cycle;Signal;HPM_P1;HPM_P2
2023/12/23 00:01:11;;;;;;;0.20;0.20;;;;;;;8.07;61.31;99703.91;4956572;28;20421;-87
2023/12/23 00:03:37;;;;;;;0.20;0.20;;;;;;;8.13;60.59;99708.69;4940682;28;20023;-88
2023/12/23 00:06:04;;;;;;;0.20;0.20;;;;;;;8.22;60.68;99691.91;4973622;28;20472;-88
2023/12/23 00:08:29;;;;;;;0.20;0.20;;;;;;;8.25;61.57;99694.31;4956482;28;20477;-89
2023/12/23 00:10:55;;;;;;;0.20;0.20;;;;;;;8.22;60.61;99666.97;4973605;28;20031;-88
2023/12/23 00:13:20;;;;;;;0.20;0.20;;;;;;;8.29;60.84;99649.47;4973577;28;20098;-88
2023/12/23 00:15:46;;;;;;;0.20;0.20;;;;;;;8.29;59.54;99637.41;4956452;28;20042;-88
2023/12/23 00:18:11;;;;;;;0.20;0.20;;;;;;;8.33;61.16;99623.41;4956648;28;20085;-88
2023/12/23 00:20:37;;;;;;;0.20;0.20;;;;;;;8.19;59.32;99622.53;4956361;28;20027;-88
2023/12/23 00:23:03;;;;;;;0.20;0.20;;;;;;;8.36;60.04;99648.25;4956579;28;20034;-88
2023/12/23 00:25:29;;;;;;;0.20;0.20;;;;;;;8.40;58.85;99647.16;4955683;28;20023;-89
2023/12/23 00:27:55;;;;;;;0.20;0.20;;;;;;;8.38;60.03;99635.28;4956048;28;20018;-87
2023/12/23 00:30:20;;;;;;;0.20;0.20;;;;;;;8.32;59.91;99637.22;4956398;28;20042;-87
2023/12/23 00:32:46;;;;;;;0.20;0.20;;;;;;;8.09;59.60;99603.34;4955860;28;20024;-87
2023/12/23 00:35:12;;;;;;;0.20;0.20;;;;;;;8.28;58.61;99638.31;4955985;28;20061;-87
2023/12/23 00:37:38;;;;;;;0.20;0.20;;;;;;;8.16;58.15;99646.72;4973062;28;20500;-88
2023/12/23 00:40:06;;;;;;;0.20;0.20;;;;;;;8.18;58.34;99650.03;4956007;28;20034;-89
2023/12/23 00:42:31;;;;;;;0.20;0.20;;;;;;;8.12;57.71;99647.78;4955603;28;20033;-89
2023/12/23 00:44:57;;;;;;;0.20;0.20;;;;;;;7.87;57.86;99614.81;4955869;28;20113;-87
2023/12/23 00:47:24;;;;;;;0.20;0.20;;;;;;;8.05;57.81;99633.56;4973118;28;20038;-87
2023/12/23 00:49:49;;;;;;;0.20;0.20;;;;;;;8.18;58.31;99642.31;4956127;28;20074;-88
2023/12/23 00:52:15;;;;;;;0.20;0.20;;;;;;;8.17;57.01;99638.09;4939717;28;20062;-87
2023/12/23 00:54:40;;;;;;;0.20;0.20;;;;;;;8.23;57.14;99640.31;4954875;28;20045;-87
2023/12/23 00:57:06;;;;;;;0.20;0.20;;;;;;;8.28;57.26;99620.28;4973110;28;20034;-87
2023/12/23 00:59:31;;;;;;;0.20;0.20;;;;;;;8.12;57.49;99583.38;4955747;28;20086;-87
2023/12/23 01:01:57;;;;;;;0.20;0.20;;;;;;;8.33;56.82;99623.41;4971525;28;20573;-88
2023/12/23 01:04:22;;;;;;;0.20;0.20;;;;;;;8.40;58.18;99631.69;4939371;28;20042;-87
2023/12/23 01:06:48;;;;;;;0.20;0.20;;;;;;;8.34;57.31;99625.09;4973013;28;20041;-88
2023/12/23 01:09:13;;;;;;;0.20;0.20;;;;;;;8.44;58.34;99624.59;4939021;28;20500;-88
2023/12/23 01:11:39;;;;;;;0.20;0.20;;;;;;;8.48;58.84;99615.78;4972622;28;20493;-86
2023/12/23 01:14:05;;;;;;;0.20;0.20;;;;;;;8.47;59.34;99603.81;4972629;28;20353;-89
2023/12/23 01:16:30;;;;;;;0.20;0.20;;;;;;;8.38;59.19;99605.16;4955310;28;20424;-89
2023/12/23 01:18:56;;;;;;;0.20;0.20;;;;;;;8.38;59.35;99604.34;4955373;28;20025;-87
2023/12/23 01:21:22;;;;;;;0.20;0.20;;;;;;;8.38;60.14;99596.59;4972288;28;20085;-88
2023/12/23 01:23:47;;;;;;;0.20;0.20;;;;;;;8.34;60.89;99583.00;4955027;28;20042;-89
2023/12/23 01:26:13;;;;;;;0.20;0.20;;;;;;;8.33;60.50;99586.50;4955193;28;20034;-87
2023/12/23 01:28:38;;;;;;;0.20;0.20;;;;;;;8.25;61.19;99593.84;4955143;28;20097;-88
2023/12/23 01:31:05;;;;;;;0.10;0.10;;;;;;;8.24;61.29;99590.44;4939209;28;20035;-88
2023/12/23 01:33:30;;;;;;;0.20;0.20;;;;;;;8.18;61.23;99587.38;4923268;28;20033;-88
2023/12/23 01:35:56;;;;;;;0.10;0.10;;;;;;;8.07;61.03;99579.41;4954785;28;20106;-88
2023/12/23 01:38:21;;;;;;;0.20;0.20;;;;;;;8.05;61.39;99567.44;4954765;28;20035;-87
2023/12/23 01:40:47;;;;;;;0.20;0.20;;;;;;;8.02;63.45;99556.47;4955011;28;20031;-88
2023/12/23 01:43:13;;;;;;;0.20;0.20;;;;;;;7.89;63.21;99543.44;4939054;28;20046;-88
2023/12/23 01:45:39;;;;;;;0.20;0.20;;;;;;;7.88;62.97;99540.97;4954803;28;20030;-88
2023/12/23 01:48:05;;;;;;;0.20;0.20;;;;;;;7.88;62.66;99523.78;4955068;28;20038;-86
2023/12/23 01:50:31;;;;;;;0.20;0.20;;;;;;;7.84;63.03;99519.69;4954672;28;20038;-88
2023/12/23 01:52:56;;;;;;;0.10;0.10;;;;;;;7.76;62.56;99514.94;4938186;28;20038;-88
2023/12/23 01:55:26;;;;;;;0.20;0.20;;;;;;;7.83;63.28;99522.34;4972152;28;20416;-88
2023/12/23 01:57:52;;;;;;;0.20;0.20;;;;;;;7.83;62.65;99514.63;4939432;28;20026;-88
2023/12/23 02:00:18;;;;;;;0.20;0.20;;;;;;;7.67;63.08;99487.16;4954805;28;20030;-89
2023/12/23 02:02:43;;;;;;;0.20;0.20;;;;;;;7.55;64.26;99479.25;4954652;28;20516;-88
2023/12/23 02:05:09;;;;;;;0.20;0.20;;;;;;;7.53;64.61;99479.34;4938984;28;20038;-88
2023/12/23 02:07:35;;;;;;;0.20;0.20;;;;;;;7.41;65.62;99470.56;4954603;28;20038;-88
2023/12/23 02:10:00;;;;;;;0.20;0.20;;;;;;;7.31;65.64;99440.28;4938510;28;20045;-87
2023/12/23 02:12:35;;;;;;;0.20;0.20;;;;;;;7.52;64.51;99475.13;4971377;28;20030;-88
2023/12/23 02:15:04;;;;;;;0.20;0.20;;;;;;;7.27;64.77;99444.72;4971454;28;20027;-89
2023/12/23 02:17:29;;;;;;;0.20;0.20;;;;;;;7.06;65.41;99415.03;4938907;28;20453;-87
2023/12/23 02:19:55;;;;;;;0.20;0.20;;;;;;;7.18;66.15;99410.06;4971765;28;20023;-88
2023/12/23 02:22:20;;;;;;;0.20;0.20;;;;;;;7.04;66.54;99415.13;4938216;28;20429;-86
2023/12/23 02:24:46;;;;;;;0.20;0.20;;;;;;;7.11;66.01;99429.31;4954960;28;20481;-90
2023/12/23 02:27:13;;;;;;;0.20;0.20;;;;;;;7.12;63.62;99414.72;4938587;28;20023;-89
2023/12/23 02:29:39;;;;;;;0.20;0.20;;;;;;;7.12;65.75;99405.25;4954528;28;20058;-89
2023/12/23 02:32:05;;;;;;;0.20;0.20;;;;;;;7.08;64.77;99390.91;4938329;28;20027;-88
2023/12/23 02:34:30;;;;;;;0.20;0.20;;;;;;;7.09;64.82;99405.44;4953976;28;20401;-87
2023/12/23 02:36:56;;;;;;;0.20;0.20;;;;;;;7.04;64.35;99371.41;4954268;28;20034;-88
2023/12/23 02:39:21;;;;;;;0.20;0.20;;;;;;;7.24;64.68;99410.63;4954441;28;20043;-89
2023/12/23 02:41:47;;;;;;;0.20;0.20;;;;;;;7.21;64.45;99403.09;4954520;28;20034;-88
2023/12/23 02:44:12;;;;;;;0.20;0.20;;;;;;;7.12;63.94;99384.69;4971995;28;20094;-87
2023/12/23 02:46:38;;;;;;;0.20;0.20;;;;;;;7.15;63.84;99383.69;4954244;28;20034;-86
2023/12/23 02:49:04;;;;;;;0.20;0.20;;;;;;;7.21;63.53;99361.94;4954468;28;20035;-88
2023/12/23 02:51:29;;;;;;;0.20;0.20;;;;;;;7.29;62.65;99345.19;4970861;28;20465;-87
2023/12/23 02:53:54;;;;;;;0.20;0.20;;;;;;;7.19;63.55;99350.00;4971536;28;20041;-88
2023/12/23 02:56:20;;;;;;;0.20;0.20;;;;;;;7.03;63.21;99344.03;4971765;28;20040;-86
2023/12/23 02:58:45;;;;;;;0.20;0.20;;;;;;;7.04;62.76;99334.56;4954216;28;20390;-88
2023/12/23 03:01:11;;;;;;;0.13;0.13;;;;;;;7.03;63.07;99364.59;4971440;28;20524;-88
2023/12/23 03:03:37;;;;;;;0.17;0.17;;;;;;;7.05;63.44;99372.22;4938203;28;20114;-87
2023/12/23 03:06:03;;;;;;;0.20;0.20;;;;;;;7.02;63.64;99378.38;4957340;28;20478;-88
2023/12/23 03:08:28;;;;;;;0.10;0.10;;;;;;;6.97;63.67;99394.94;4957119;28;20066;-88
2023/12/23 03:10:54;;;;;;;0.10;0.10;;;;;;;7.05;64.39;99398.78;4974910;28;20473;-87
2023/12/23 03:13:19;;;;;;;0.20;0.20;;;;;;;6.97;64.67;99384.66;4941313;28;20125;-88
2023/12/23 03:15:45;;;;;;;0.20;0.20;;;;;;;6.85;64.11;99371.56;4957507;28;20027;-88
2023/12/23 03:18:10;;;;;;;0.20;0.20;;;;;;;6.83;63.93;99404.22;4974817;28;20101;-88
2023/12/23 03:20:36;;;;;;;0.20;0.20;;;;;;;6.77;64.31;99385.72;4956983;28;20023;-85
2023/12/23 03:23:02;;;;;;;0.20;0.20;;;;;;;6.78;65.29;99369.38;4957328;28;20425;-88
2023/12/23 03:25:29;;;;;;;0.10;0.10;;;;;;;6.80;65.82;99380.44;4974771;28;20069;-88
2023/12/23 03:27:54;;;;;;;0.20;0.20;;;;;;;6.87;65.27;99399.75;4974923;28;20038;-88
2023/12/23 03:30:20;;;;;;;0.20;0.20;;;;;;;6.58;65.13;99384.13;4957614;28;20034;-87
2023/12/23 03:32:45;;;;;;;0.10;0.10;;;;;;;6.69;64.13;99387.91;4974432;28;20560;-89
2023/12/23 03:35:11;;;;;;;0.20;0.20;;;;;;;6.67;63.76;99390.53;4956982;28;20038;-88
2023/12/23 03:37:36;;;;;;;0.20;0.20;;;;;;;6.73;64.72;99412.50;4974237;28;20425;-88
2023/12/23 03:40:03;;;;;;;0.20;0.20;;;;;;;6.54;64.38;99412.63;4957099;28;20027;-88
2023/12/23 03:42:28;;;;;;;0.20;0.20;;;;;;;6.57;63.70;99397.88;4973989;28;20023;-89
2023/12/23 03:44:54;;;;;;;0.20;0.20;;;;;;;6.54;64.19;99405.75;4956968;28;20494;-87
2023/12/23 03:47:19;;;;;;;0.20;0.20;;;;;;;6.38;64.37;99401.47;4957213;28;20042;-89
2023/12/23 03:49:45;;;;;;;0.20;0.20;;;;;;;6.46;65.14;99427.59;4956757;28;20022;-88
2023/12/23 03:52:10;;;;;;;0.20;0.20;;;;;;;6.47;65.69;99434.41;4956988;28;20042;-88
2023/12/23 03:54:36;;;;;;;0.20;0.20;;;;;;;6.38;65.53;99412.56;4974125;28;20035;-85
2023/12/23 03:57:01;;;;;;;0.20;0.20;;;;;;;6.31;65.53;99422.34;4956951;28;20504;-86
2023/12/23 03:59:27;;;;;;;0.20;0.20;;;;;;;6.36;65.53;99439.25;4974198;28;20509;-88
2023/12/23 04:01:52;;;;;;;0.20;0.20;;;;;;;6.29;65.62;99438.72;4956417;28;20035;-87
2023/12/23 04:04:20;;;;;;;0.20;0.20;;;;;;;6.24;66.58;99448.41;4974077;28;20031;-86
2023/12/23 04:06:45;;;;;;;0.20;0.20;;;;;;;6.24;66.43;99467.22;4956504;28;20057;-90
2023/12/23 04:09:11;;;;;;;0.10;0.10;;;;;;;6.23;66.35;99460.44;4940631;28;20440;-89
2023/12/23 04:11:36;;;;;;;0.20;0.20;;;;;;;6.25;67.35;99478.31;4956659;28;20039;-88
2023/12/23 04:14:02;;;;;;;0.10;0.10;;;;;;;6.21;66.54;99461.41;4956306;28;20505;-89
2023/12/23 04:16:28;;;;;;;0.10;0.10;;;;;;;6.09;67.48;99454.28;4955438;28;20162;-87
2023/12/23 04:18:53;;;;;;;0.20;0.20;;;;;;;6.06;67.70;99477.56;4940446;28;20125;-88
2023/12/23 04:21:19;;;;;;;0.10;0.10;;;;;;;6.02;67.66;99488.00;4956287;28;20109;-89
2023/12/23 04:23:45;;;;;;;0.20;0.20;;;;;;;6.03;67.09;99499.91;4956153;28;20022;-89
2023/12/23 04:26:13;;;;;;;0.10;0.10;;;;;;;6.13;66.80;99504.63;4973434;28;20031;-88
2023/12/23 04:28:39;;;;;;;0.20;0.20;;;;;;;6.06;67.42;99498.94;4956538;28;20531;-89
2023/12/23 04:31:04;;;;;;;0.20;0.20;;;;;;;5.88;67.17;99480.06;4940318;28;20031;-88
2023/12/23 04:33:30;;;;;;;0.10;0.10;;;;;;;5.90;67.68;99498.84;4956229;28;20034;-89
2023/12/23 04:35:55;;;;;;;0.20;0.20;;;;;;;5.78;68.19;99499.38;4973436;28;20098;-88
2023/12/23 04:38:21;;;;;;;0.20;0.20;;;;;;;5.69;68.52;99504.94;4939935;28;20033;-87
2023/12/23 04:40:46;;;;;;;0.20;0.20;;;;;;;5.69;68.68;99528.03;4955985;28;20038;-88
2023/12/23 04:43:12;;;;;;;0.20;0.20;;;;;;;5.56;69.18;99544.91;4956137;28;20085;-90
2023/12/23 04:45:37;;;;;;;0.10;0.10;;;;;;;5.65;68.94;99549.63;4972951;28;20037;-88
2023/12/23 04:48:03;;;;;;;0.20;0.20;;;;;;;5.61;69.16;99553.25;4973201;28;20085;-88
2023/12/23 04:50:29;;;;;;;0.20;0.20;;;;;;;5.56;69.91;99557.72;4972986;28;20110;-88
2023/12/23 04:52:54;;;;;;;0.20;0.20;;;;;;;5.66;69.19;99576.94;4972932;28;20031;-88
2023/12/23 04:55:20;;;;;;;0.20;0.20;;;;;;;5.63;69.87;99565.09;4956142;28;20035;-87
2023/12/23 04:57:45;;;;;;;0.20;0.20;;;;;;;5.72;69.59;99592.06;4955448;28;20038;-87
2023/12/23 05:00:11;;;;;;;0.20;0.20;;;;;;;5.71;69.57;99605.81;4972657;28;20416;-87
2023/12/23 05:02:37;;;;;;;0.20;0.20;;;;;;;5.74;70.23;99593.66;4939752;28;20425;-89
2023/12/23 05:05:03;;;;;;;0.20;0.20;;;;;;;5.64;69.25;99563.34;4955327;28;20027;-87
2023/12/23 05:07:29;;;;;;;0.20;0.20;;;;;;;5.78;69.63;99599.47;4971618;28;20019;-88
2023/12/23 05:09:54;;;;;;;0.20;0.20;;;;;;;5.84;69.51;99626.59;4955049;28;20477;-88
2023/12/23 05:12:22;;;;;;;0.20;0.20;;;;;;;5.78;69.12;99612.31;4939462;28;20034;-89
2023/12/23 05:14:48;;;;;;;0.20;0.20;;;;;;;5.77;68.55;99605.50;4955345;28;20104;-89
2023/12/23 05:17:14;;;;;;;0.20;0.20;;;;;;;5.77;68.61;99569.56;4972473;28;20038;-89
2023/12/23 05:19:41;;;;;;;0.20;0.20;;;;;;;5.92;68.60;99594.59;4955550;28;20038;-87
2023/12/23 05:22:07;;;;;;;0.20;0.20;;;;;;;5.82;68.81;99593.31;4939577;28;20036;-88
2023/12/23 05:24:32;;;;;;;0.20;0.20;;;;;;;6.01;68.69;99630.09;4955440;28;20027;-88
2023/12/23 05:26:58;;;;;;;0.20;0.20;;;;;;;6.11;68.14;99635.66;4954979;28;20030;-88
2023/12/23 05:29:23;;;;;;;0.20;0.20;;;;;;;6.18;68.13;99623.34;4955097;28;20081;-87
2023/12/23 05:31:49;;;;;;;0.10;0.10;;;;;;;6.09;67.52;99624.59;4972424;28;20154;-87
2023/12/23 05:34:14;;;;;;;0.20;0.20;;;;;;;6.20;68.31;99642.09;4955083;28;20037;-86
2023/12/23 05:36:40;;;;;;;0.20;0.20;;;;;;;6.22;67.19;99651.38;4972150;28;20038;-87
2023/12/23 05:39:06;;;;;;;0.20;0.20;;;;;;;6.08;68.19;99642.63;4972346;28;20029;-89
2023/12/23 05:41:32;;;;;;;0.20;0.20;;;;;;;6.19;67.53;99645.53;4954875;28;20026;-87
2023/12/23 05:43:58;;;;;;;0.20;0.20;;;;;;;6.22;67.52;99638.56;4954687;28;20045;-87
2023/12/23 05:46:23;;;;;;;0.20;0.20;;;;;;;6.26;67.29;99624.66;4954615;28;20505;-86
2023/12/23 05:48:49;;;;;;;0.20;0.20;;;;;;;6.32;68.09;99659.50;4954682;28;20027;-87
2023/12/23 05:51:14;;;;;;;0.20;0.20;;;;;;;6.36;68.39;99655.88;4954949;28;20027;-89
2023/12/23 05:53:40;;;;;;;0.20;0.20;;;;;;;6.32;68.67;99654.38;4954557;28;20037;-88
2023/12/23 05:56:06;;;;;;;0.20;0.20;;;;;;;6.31;66.85;99678.38;4954662;28;20034;-87
2023/12/23 05:58:32;;;;;;;0.20;0.20;;;;;;;6.42;66.85;99678.72;4938760;28;20117;-86
2023/12/23 06:00:58;;;;;;;0.20;0.20;;;;;;;6.44;66.83;99673.50;4938736;28;20133;-87
2023/12/23 06:03:23;;;;;;;0.20;0.20;;;;;;;6.50;66.78;99684.34;4954471;28;20084;-86
2023/12/23 06:05:49;;;;;;;0.20;0.20;;;;;;;6.52;67.78;99686.81;4954466;28;20417;-88
2023/12/23 06:08:15;;;;;;;0.20;0.20;;;;;;;6.48;68.47;99727.22;4972216;28;20027;-87
2023/12/23 06:10:40;;;;;;;0.10;0.10;;;;;;;6.50;69.03;99719.47;4971520;28;20109;-88
2023/12/23 06:13:06;;;;;;;0.20;0.20;;;;;;;6.56;68.97;99720.00;4953937;28;20067;-88
2023/12/23 06:15:31;;;;;;;0.10;0.10;;;;;;;6.51;68.42;99721.97;4954288;28;20069;-88
2023/12/23 06:17:57;;;;;;;0.20;0.20;;;;;;;6.44;67.92;99720.56;4971704;28;20618;-88
2023/12/23 06:20:22;;;;;;;0.20;0.20;;;;;;;6.57;67.76;99742.22;4971705;28;20497;-87
2023/12/23 06:22:49;;;;;;;0.20;0.20;;;;;;;6.43;68.05;99726.63;4971475;28;20513;-89
2023/12/23 06:25:15;;;;;;;0.20;0.20;;;;;;;6.33;67.19;99717.66;4954790;28;20027;-88
2023/12/23 06:27:40;;;;;;;0.20;0.20;;;;;;;6.18;66.73;99698.66;4953911;28;20045;-88
2023/12/23 06:30:06;;;;;;;0.20;0.20;;;;;;;6.45;65.83;99726.53;4971784;28;20485;-89
2023/12/23 06:32:32;;;;;;;0.20;0.20;;;;;;;6.77;64.43;99720.72;4938567;28;20054;-88
2023/12/23 06:34:57;;;;;;;0.20;0.20;;;;;;;7.21;63.66;99732.34;4954411;28;20069;-89
2023/12/23 06:37:23;;;;;;;0.20;0.20;;;;;;;7.65;62.23;99743.81;4938613;28;20129;-88
2023/12/23 06:39:48;;;;;;;0.20;0.20;;;;;;;8.05;60.23;99773.50;4973445;28;20035;-85
2023/12/23 06:42:14;;;;;;;0.20;0.20;;;;;;;8.20;59.28;99764.16;4957876;28;20122;-87
2023/12/23 06:44:40;;;;;;;0.20;0.20;;;;;;;8.46;58.53;99778.28;4958481;28;20043;-89
2023/12/23 06:47:07;;;;;;;0.20;0.20;;;;;;;8.48;59.94;99771.28;4958164;28;20034;-87
2023/12/23 06:49:33;;;;;;;0.20;0.20;;;;;;;8.49;60.00;99778.09;4975299;28;20035;-88
2023/12/23 06:51:58;;;;;;;0.20;0.20;;;;;;;8.59;58.96;99784.41;4941955;28;20038;-87
2023/12/23 06:54:24;;;;;;;0.20;0.20;;;;;;;8.42;59.45;99742.41;4975138;28;20034;-87
2023/12/23 06:56:49;;;;;;;0.20;0.20;;;;;;;8.60;58.89;99780.09;4957686;28;20022;-87
2023/12/23 06:59:15;;;;;;;0.20;0.20;;;;;;;8.45;58.73;99755.97;4958076;28;20038;-87
2023/12/23 07:01:40;;;;;;;0.20;0.20;;;;;;;8.68;58.78;99788.25;4957568;28;20051;-88
2023/12/23 07:04:07;;;;;;;0.20;0.20;;;;;;;8.71;58.77;99794.97;4957863;28;20034;-86
2023/12/23 07:06:33;;;;;;;0.20;0.20;;;;;;;8.71;58.00;99802.72;4957979;28;20027;-88
2023/12/23 07:08:59;;;;;;;0.20;0.20;;;;;;;8.74;57.83;99795.63;4957397;28;20090;-88
2023/12/23 07:11:24;;;;;;;0.10;0.10;;;;;;;8.80;58.38;99823.69;4974590;28;20138;-90
2023/12/23 07:13:53;;;;;;;0.20;0.20;;;;;;;8.97;58.81;99834.84;4941462;28;20051;-87
2023/12/23 07:16:18;;;;;;;0.20;0.20;;;;;;;8.71;59.08;99833.66;4941826;28;20420;-90
2023/12/23 07:18:44;;;;;;;0.20;0.20;;;;;;;8.78;58.53;99828.09;4957489;28;20034;-88
2023/12/23 07:21:09;;;;;;;0.20;0.20;;;;;;;8.97;58.90;99842.56;4957615;28;20053;-88
2023/12/23 07:23:35;;;;;;;0.20;0.20;;;;;;;8.93;59.58;99853.97;4957599;28;20038;-89
2023/12/23 07:26:02;;;;;;;0.20;0.20;;;;;;;8.90;58.96;99884.16;4956737;28;20433;-88
2023/12/23 07:28:27;;;;;;;0.20;0.20;;;;;;;8.77;59.35;99895.25;4941513;28;20038;-88
2023/12/23 07:30:53;;;;;;;0.20;0.20;;;;;;;8.85;59.81;99918.88;4941290;28;20031;-90
2023/12/23 07:33:19;;;;;;;0.20;0.20;;;;;;;8.82;60.49;99909.53;4957366;28;20031;-88
2023/12/23 07:35:44;;;;;;;0.20;0.20;;;;;;;8.67;60.47;99933.56;4957081;28;20501;-87
2023/12/23 07:38:10;;;;;;;0.10;0.10;;;;;;;8.43;60.63;99921.94;4974054;28;20505;-88
2023/12/23 07:40:35;;;;;;;0.20;0.20;;;;;;;8.52;61.00;99936.94;4973806;28;20509;-87
2023/12/23 07:43:01;;;;;;;0.20;0.20;;;;;;;8.38;61.61;99955.69;4957044;28;20031;-88
2023/12/23 07:45:27;;;;;;;0.20;0.20;;;;;;;8.31;61.17;99942.22;4956908;28;20031;-88
2023/12/23 07:47:53;;;;;;;0.20;0.20;;;;;;;8.26;61.30;99972.56;4957154;28;20062;-89
2023/12/23 07:50:18;;;;;;;0.20;0.20;;;;;;;8.17;61.73;99941.28;4974146;28;20081;-88
2023/12/23 07:52:44;;;;;;;0.20;0.20;;;;;;;8.08;61.33;99952.84;4956827;28;20038;-89
2023/12/23 07:55:09;;;;;;;0.20;0.20;;;;;;;8.12;60.39;99974.97;4956462;28;20046;-86
2023/12/23 07:57:35;;;;;;;0.20;0.20;;;;;;;8.01;60.71;99956.63;4940821;28;20102;-89
2023/12/23 08:00:00;;;;;;;0.20;0.20;;;;;;;8.16;61.64;99989.38;4956529;28;20030;-87
2023/12/23 08:02:26;;;;;;;0.20;0.20;;;;;;;8.05;60.64;99981.31;4974185;28;20023;-88
2023/12/23 08:04:51;;;;;;;0.20;0.20;;;;;;;8.09;60.99;100028.41;4974149;28;20026;-87
2023/12/23 08:07:17;;;;;;;0.20;0.20;;;;;;;7.96;60.75;99999.78;4956484;28;20034;-87
2023/12/23 08:09:42;;;;;;;0.20;0.20;;;;;;;7.96;61.10;100015.25;4956675;28;20034;-88
2023/12/23 08:12:08;;;;;;;0.20;0.20;;;;;;;8.06;60.99;100055.13;4956715;28;20062;-88
2023/12/23 08:14:34;;;;;;;0.20;0.20;;;;;;;8.11;59.89;100060.91;4956532;28;20054;-87
2023/12/23 08:16:59;;;;;;;0.20;0.20;;;;;;;8.08;60.51;100078.25;4956360;28;20061;-90
2023/12/23 08:19:25;;;;;;;0.20;0.20;;;;;;;7.93;60.40;100062.59;4956575;28;20122;-88
2023/12/23 08:21:51;;;;;;;0.10;0.10;;;;;;;7.92;60.13;100048.06;4956289;28;20153;-89
2023/12/23 08:24:16;;;;;;;0.20;0.20;;;;;;;7.95;60.37;100065.09;4956189;28;20497;-88
2023/12/23 08:26:42;;;;;;;0.20;0.20;;;;;;;7.94;60.28;100058.28;4940318;28;20054;-87
2023/12/23 08:29:07;;;;;;;0.20;0.20;;;;;;;8.09;61.27;100069.63;4940415;28;20035;-90
2023/12/23 08:31:33;;;;;;;0.20;0.20;;;;;;;8.09;60.39;100096.22;4956449;28;20505;-88
2023/12/23 08:33:59;;;;;;;0.20;0.20;;;;;;;8.10;59.88;100090.16;4956440;28;20033;-88
2023/12/23 08:36:24;;;;;;;0.20;0.20;;;;;;;8.01;59.55;100100.88;4955961;28;20027;-88
2023/12/23 08:38:50;;;;;;;0.20;0.20;;;;;;;8.03;59.91;100122.25;4956294;28;20132;-87
2023/12/23 08:41:15;;;;;;;0.20;0.20;;;;;;;7.99;59.94;100102.72;4955950;28;20039;-88
2023/12/23 08:43:41;;;;;;;0.20;0.20;;;;;;;7.82;59.08;100130.97;4956324;28;20034;-89
2023/12/23 08:46:07;;;;;;;0.20;0.20;;;;;;;7.95;59.46;100165.56;4973261;28;20046;-88
2023/12/23 08:48:33;;;;;;;0.20;0.20;;;;;;;7.88;59.78;100143.56;4973173;28;20031;-88
2023/12/23 08:50:58;;;;;;;0.10;0.10;;;;;;;7.74;59.23;100145.00;4972742;28;20038;-88
2023/12/23 08:53:24;;;;;;;0.20;0.20;;;;;;;7.71;59.54;100147.72;4955239;28;20042;-89
2023/12/23 08:55:50;;;;;;;0.20;0.20;;;;;;;7.78;60.04;100184.34;4973059;28;20030;-88
2023/12/23 08:58:15;;;;;;;0.20;0.20;;;;;;;7.82;58.70;100180.72;4956134;28;20470;-87
2023/12/23 09:00:41;;;;;;;0.20;0.20;;;;;;;7.81;58.86;100188.53;4955641;28;20039;-88
2023/12/23 09:03:06;;;;;;;0.20;0.20;;;;;;;8.10;58.03;100213.81;4955274;28;20027;-90
2023/12/23 09:05:32;;;;;;;0.20;0.20;;;;;;;8.00;57.47;100249.47;4955674;28;20034;-88
2023/12/23 09:07:58;;;;;;;0.20;0.20;;;;;;;7.98;55.75;100215.22;4955173;28;20420;-89
2023/12/23 09:10:23;;;;;;;0.20;0.20;;;;;;;8.16;56.38;100236.75;4955342;28;20461;-87
2023/12/23 09:12:49;;;;;;;0.20;0.20;;;;;;;8.09;55.74;100250.78;4955532;28;20051;-87
2023/12/23 09:15:14;;;;;;;0.10;0.10;;;;;;;8.04;56.36;100268.19;4955435;28;20035;-88
2023/12/23 09:17:40;;;;;;;0.20;0.20;;;;;;;8.03;55.93;100313.72;4955198;28;20042;-88
2023/12/23 09:20:06;;;;;;;0.20;0.20;;;;;;;7.96;56.23;100314.91;4972746;28;20067;-90
2023/12/23 09:22:32;;;;;;;0.20;0.20;;;;;;;7.63;56.13;100296.56;4970974;28;20027;-90
2023/12/23 09:24:57;;;;;;;0.20;0.20;;;;;;;7.58;56.71;100303.66;4972627;28;20039;-88
2023/12/23 09:27:23;;;;;;;0.20;0.20;;;;;;;7.47;57.64;100331.53;4972281;28;20452;-89
2023/12/23 09:29:49;;;;;;;0.20;0.20;;;;;;;7.24;58.49;100318.78;4955651;28;20042;-88
2023/12/23 09:32:14;;;;;;;0.20;0.20;;;;;;;7.14;60.01;100356.91;4955294;28;20031;-88
2023/12/23 09:34:40;;;;;;;0.20;0.20;;;;;;;7.02;59.29;100311.09;4955085;28;20039;-90
2023/12/23 09:37:05;;;;;;;0.20;0.20;;;;;;;7.11;59.81;100331.31;4954852;28;20023;-88
2023/12/23 09:39:31;;;;;;;0.20;0.20;;;;;;;6.82;60.55;100309.28;4955567;28;20093;-89
2023/12/23 09:41:56;;;;;;;0.20;0.20;;;;;;;6.88;61.17;100329.59;4955485;28;20034;-88
2023/12/23 09:44:23;;;;;;;0.20;0.20;;;;;;;6.89;61.22;100303.84;4955189;28;20030;-88
2023/12/23 09:46:49;;;;;;;0.20;0.20;;;;;;;6.88;61.05;100286.75;4955147;28;20027;-89
2023/12/23 09:49:14;;;;;;;0.10;0.10;;;;;;;6.74;60.54;100278.72;4954888;28;20031;-87
2023/12/23 09:51:40;;;;;;;0.20;0.20;;;;;;;6.84;59.99;100304.91;4954900;28;20033;-88
2023/12/23 09:54:05;;;;;;;0.20;0.20;;;;;;;6.93;60.38;100350.00;4955341;28;20035;-88
2023/12/23 09:56:31;;;;;;;0.20;0.20;;;;;;;6.87;59.46;100321.03;4955025;28;20038;-88
2023/12/23 09:58:57;;;;;;;0.20;0.20;;;;;;;7.09;59.45;100312.53;4938995;28;20018;-89
2023/12/23 10:01:23;;;;;;;0.20;0.20;;;;;;;7.06;59.48;100264.59;4954884;28;20168;-88
2023/12/23 10:03:49;;;;;;;0.10;0.10;;;;;;;6.90;59.41;100294.41;4955093;28;20027;-88
2023/12/23 10:06:15;;;;;;;0.20;0.20;;;;;;;6.91;58.82;100285.78;4922582;28;20039;-87
2023/12/23 10:08:42;;;;;;;0.20;0.20;;;;;;;7.00;59.40;100259.72;4954904;28;20508;-88
2023/12/23 10:11:07;;;;;;;0.20;0.20;;;;;;;6.97;58.23;100280.38;4955340;28;20066;-89
2023/12/23 10:13:33;;;;;;;0.20;0.20;;;;;;;6.90;58.13;100274.66;4954473;28;20493;-91
2023/12/23 10:15:58;;;;;;;0.20;0.20;;;;;;;7.16;58.10;100280.50;4975786;28;20105;-88
2023/12/23 10:18:24;;;;;;;0.20;0.20;;;;;;;7.35;57.87;100294.28;4975946;28;20035;-89
2023/12/23 10:20:50;;;;;;;0.20;0.20;;;;;;;7.36;56.07;100277.09;4958678;28;20109;-91
2023/12/23 10:23:16;;;;;;;0.20;0.20;;;;;;;7.31;54.00;100225.84;4958655;28;20038;-87
2023/12/23 10:25:41;;;;;;;0.20;0.20;;;;;;;7.39;52.78;100204.94;4975922;28;20022;-89
2023/12/23 10:28:08;;;;;;;0.20;0.20;;;;;;;7.55;53.33;100203.38;4975733;28;20511;-87
2023/12/23 10:30:34;;;;;;;0.20;0.20;;;;;;;7.58;52.96;100236.72;4958554;28;20030;-89
2023/12/23 10:33:06;;;;;;;0.20;0.20;;;;;;;7.63;52.95;100255.38;4958408;28;20391;-88
2023/12/23 10:35:33;;;;;;;0.20;0.20;;;;;;;7.73;53.96;100227.47;4942305;28;20130;-90
2023/12/23 10:37:59;;;;;;;0.20;0.20;;;;;;;7.76;51.32;100230.75;4958581;28;20119;-85
2023/12/23 10:40:25;;;;;;;0.20;0.20;;;;;;;7.67;52.54;100238.91;4942479;28;20515;-88
2023/12/23 10:42:51;;;;;;;0.20;0.20;;;;;;;7.62;53.28;100243.41;4958576;28;20030;-90
2023/12/23 10:45:16;;;;;;;0.20;0.20;;;;;;;7.63;53.10;100232.19;4958436;28;20026;-87
2023/12/23 10:47:42;;;;;;;0.20;0.20;;;;;;;7.79;51.71;100252.16;4958355;28;20034;-87
2023/12/23 10:50:08;;;;;;;0.20;0.20;;;;;;;7.78;51.45;100240.19;4957721;28;20031;-86
2023/12/23 10:52:35;;;;;;;0.20;0.20;;;;;;;7.80;50.88;100248.66;4958397;28;20034;-89
2023/12/23 10:55:01;;;;;;;0.20;0.20;;;;;;;7.81;49.68;100207.38;4957898;28;20038;-88
2023/12/23 10:57:28;;;;;;;0.20;0.20;;;;;;;7.89;49.44;100230.25;4942589;28;20031;-89
2023/12/23 10:59:53;;;;;;;0.13;0.13;;;;;;;7.98;49.77;100214.38;4942527;28;20038;-85
2023/12/23 11:02:19;;;;;;;0.20;0.20;;;;;;;7.94;49.96;100176.75;4958192;28;20022;-88
2023/12/23 11:04:48;;;;;;;0.20;0.20;;;;;;;8.03;50.34;100222.72;4957448;28;20035;-89
2023/12/23 11:07:14;;;;;;;0.20;0.20;;;;;;;8.03;50.00;100191.81;4942433;28;20034;-89
2023/12/23 11:09:41;;;;;;;0.20;0.20;;;;;;;7.92;50.75;100202.59;4941458;28;20038;-88
2023/12/23 11:12:06;;;;;;;0.20;0.20;;;;;;;7.81;50.79;100211.69;4958155;28;20081;-89
2023/12/23 11:14:32;;;;;;;0.20;0.20;;;;;;;7.85;49.97;100202.94;4941316;28;20433;-88
2023/12/23 11:16:58;;;;;;;0.20;0.20;;;;;;;7.84;50.17;100207.25;4957371;28;20034;-87
2023/12/23 11:19:24;;;;;;;0.10;0.10;;;;;;;7.96;49.58;100208.44;4957356;28;20029;-87
2023/12/23 11:22:21;;;;;;;0.20;0.20;;;;;;;8.05;48.26;100221.75;4957681;28;20042;-88
2023/12/23 11:24:46;;;;;;;0.20;0.20;;;;;;;8.16;47.51;100202.38;4971280;28;20054;-88
2023/12/23 11:27:32;;;;;;;0.20;0.20;;;;;;;8.31;46.67;100192.22;4941313;28;20034;-88
2023/12/23 11:30:05;;;;;;;0.20;0.20;;;;;;;8.13;47.11;100189.66;4958113;28;20173;-88
2023/12/23 11:32:41;;;;;;;;;;;;;;;8.27;45.67;100216.47;4942354;28;20110;-88